Time;durP1;ratioP1;P1;durP2;ratioP2;P2;SDS_P1;SDS_P2;PMS_P1;PMS_P2;Temp;Humidity;BMP_temperature;BMP_pressure;BME280_temperature;BME280_humidity;BME280_pressure;Samples;Min_cycle;Max_cycle;Signal;HPM_P1;HPM_P2
2022/07/19 00:02:11;;;;;;;10.45;5.38;;;16.60;99.90;;;;;;5081899;28;20077;-47
2022/07/19 00:04:37;;;;;;;8.55;5.38;;;15.00;99.90;;;;;;5081274;28;20048;-45
2022/07/19 00:07:04;;;;;;;9.57;5.15;;;14.60;99.90;;;;;;5081181;28;20420;-46
2022/07/19 00:09:30;;;;;;;9.35;5.20;;;16.00;99.90;;;;;;5080880;28;20122;-45
2022/07/19 00:11:56;;;;;;;10.23;5.60;;;16.00;99.90;;;;;;5081329;28;20465;-45
2022/07/19 00:14:22;;;;;;;10.13;5.50;;;16.00;99.90;;;;;;5081860;28;20047;-46
2022/07/19 00:16:48;;;;;;;9.90;5.80;;;16.90;99.90;;;;;;5081382;28;20040;-46
2022/07/19 00:19:14;;;;;;;9.13;5.25;;;15.90;99.90;;;;;;5081061;28;20443;-45
2022/07/19 00:21:40;;;;;;;8.00;5.20;;;18.00;99.90;;;;;;5081295;28;20390;-47
2022/07/19 00:24:06;;;;;;;8.30;5.18;;;16.10;99.90;;;;;;5081254;28;20074;-45
2022/07/19 00:26:32;;;;;;;11.00;5.53;;;16.80;99.90;;;;;;5081356;28;20539;-45
2022/07/19 00:29:00;;;;;;;10.95;5.65;;;16.00;99.90;;;;;;5081917;28;20036;-49
2022/07/19 00:31:28;;;;;;;8.05;4.90;;;18.10;99.90;;;;;;5082202;28;20047;-47
2022/07/19 00:33:53;;;;;;;9.65;5.30;;;17.10;99.90;;;;;;5082204;28;20063;-45
2022/07/19 00:36:20;;;;;;;7.63;5.30;;;17.20;99.90;;;;;;5081664;28;20062;-45
2022/07/19 00:38:48;;;;;;;7.65;5.22;;;16.30;99.90;;;;;;5063751;28;20048;-47
2022/07/19 00:41:13;;;;;;;11.63;5.47;;;15.80;99.90;;;;;;5081650;28;20040;-44
2022/07/19 00:43:40;;;;;;;6.95;4.97;;;17.90;99.90;;;;;;5081520;28;20225;-45
2022/07/19 00:46:19;;;;;;;8.90;4.72;;;16.10;99.90;;;;;;5081493;28;20581;-47
2022/07/19 00:48:48;;;;;;;8.30;5.07;;;17.80;99.90;;;;;;5081718;28;20532;-50
2022/07/19 00:51:15;;;;;;;9.45;5.00;;;15.40;99.90;;;;;;5081383;28;20117;-46
2022/07/19 00:53:41;;;;;;;9.15;4.95;;;15.60;99.90;;;;;;5082077;28;20065;-47
2022/07/19 00:56:09;;;;;;;7.68;4.85;;;17.40;99.90;;;;;;5081763;28;20124;-49
2022/07/19 00:58:36;;;;;;;7.35;5.55;;;15.50;99.90;;;;;;5082164;28;20048;-44
2022/07/19 01:01:04;;;;;;;10.05;5.95;;;16.70;99.90;;;;;;5080738;28;20044;-48
2022/07/19 01:03:35;;;;;;;8.23;5.28;;;15.50;99.90;;;;;;5080276;28;20043;-45
2022/07/19 01:06:01;;;;;;;9.18;5.60;;;15.20;99.90;;;;;;5080923;28;20138;-45
2022/07/19 01:08:27;;;;;;;13.90;6.25;;;15.50;99.90;;;;;;5081150;28;20066;-49
2022/07/19 01:10:53;;;;;;;11.52;5.75;;;17.00;99.90;;;;;;5080934;28;20035;-45
2022/07/19 01:13:19;;;;;;;9.45;5.47;;;16.30;99.90;;;;;;5080777;28;20055;-44
2022/07/19 01:15:44;;;;;;;8.07;5.15;;;17.00;99.90;;;;;;5080296;28;20032;-44
2022/07/19 01:18:12;;;;;;;10.85;5.88;;;15.50;99.90;;;;;;5079778;28;20048;-48
2022/07/19 01:20:38;;;;;;;11.10;5.93;;;17.50;99.90;;;;;;5080295;28;20153;-47
2022/07/19 01:23:04;;;;;;;9.23;5.63;;;17.50;99.90;;;;;;5080853;28;20040;-47
2022/07/19 01:25:35;;;;;;;8.80;5.10;;;17.10;99.90;;;;;;5080149;28;20044;-45
2022/07/19 01:28:04;;;;;;;10.68;5.47;;;17.70;99.90;;;;;;5080071;28;21218;-45
2022/07/19 01:30:30;;;;;;;11.13;5.25;;;15.40;99.90;;;;;;5079529;28;20596;-50
2022/07/19 01:32:56;;;;;;;8.40;5.47;;;15.40;99.90;;;;;;5079878;28;20123;-49
2022/07/19 01:35:24;;;;;;;8.85;5.38;;;15.40;99.90;;;;;;5080307;28;20047;-46
2022/07/19 01:37:52;;;;;;;12.57;6.53;;;15.40;99.90;;;;;;5079467;28;20036;-44
2022/07/19 01:40:19;;;;;;;9.10;5.72;;;15.40;99.90;;;;;;5080209;28;20043;-44
2022/07/19 01:42:46;;;;;;;11.32;5.55;;;16.20;99.90;;;;;;5080179;28;20550;-46
2022/07/19 01:45:14;;;;;;;7.82;5.80;;;15.50;99.90;;;;;;5080002;28;20101;-44
2022/07/19 01:47:40;;;;;;;10.52;6.05;;;16.20;99.90;;;;;;5080674;28;20046;-46
2022/07/19 01:50:09;;;;;;;10.13;5.57;;;15.20;99.90;;;;;;5080589;28;20036;-45
2022/07/19 01:52:36;;;;;;;8.98;5.65;;;15.20;99.90;;;;;;5080434;28;20276;-44
2022/07/19 01:55:02;;;;;;;9.68;5.95;;;15.20;99.90;;;;;;5080778;28;20051;-46
2022/07/19 01:57:28;;;;;;;7.32;5.10;;;15.40;99.90;;;;;;5079854;28;20054;-44
2022/07/19 01:59:54;;;;;;;9.43;4.97;;;16.20;99.90;;;;;;5080389;28;20087;-45
2022/07/19 02:02:22;;;;;;;9.13;5.47;;;15.10;99.90;;;;;;5080615;28;20050;-44
2022/07/19 02:04:48;;;;;;;7.65;5.55;;;15.00;99.90;;;;;;5080771;28;20052;-46
2022/07/19 02:07:14;;;;;;;9.75;5.32;;;16.30;99.90;;;;;;5080138;28;20069;-45
2022/07/19 02:09:41;;;;;;;10.52;4.95;;;15.10;99.90;;;;;;5080567;28;20173;-46
2022/07/19 02:12:07;;;;;;;9.77;5.97;;;17.00;99.90;;;;;;5079918;28;20539;-44
2022/07/19 02:14:33;;;;;;;10.18;5.45;;;15.00;99.90;;;;;;5079614;28;20044;-46
2022/07/19 02:17:00;;;;;;;8.63;5.45;;;15.70;99.90;;;;;;5079391;28;20043;-44
2022/07/19 02:19:26;;;;;;;8.18;5.30;;;15.20;99.90;;;;;;5079888;28;20516;-44
2022/07/19 02:21:52;;;;;;;8.88;5.78;;;14.70;99.90;;;;;;5079870;28;20055;-47
2022/07/19 02:24:19;;;;;;;9.02;5.35;;;14.90;99.90;;;;;;5079824;28;20040;-44
2022/07/19 02:26:45;;;;;;;7.53;4.95;;;15.00;99.90;;;;;;5079202;28;20044;-44
2022/07/19 02:29:11;;;;;;;7.97;4.78;;;14.60;99.90;;;;;;5079019;28;20051;-45
2022/07/19 02:31:36;;;;;;;10.70;5.78;;;14.80;99.90;;;;;;5079862;28;20918;-46
2022/07/19 02:34:06;;;;;;;9.60;5.20;;;14.80;99.90;;;;;;5080237;28;20055;-48
2022/07/19 02:36:31;;;;;;;7.90;6.53;;;15.50;99.90;;;;;;5079091;28;20052;-44
2022/07/19 02:38:58;;;;;;;8.65;5.88;;;14.90;99.90;;;;;;5078228;28;20826;-45
2022/07/19 02:41:24;;;;;;;9.13;6.57;;;14.80;99.90;;;;;;5078883;28;20147;-47
2022/07/19 02:43:51;;;;;;;11.35;6.72;;;14.70;99.90;;;;;;5079144;28;20138;-47
2022/07/19 02:46:17;;;;;;;11.50;6.28;;;14.70;99.90;;;;;;5077216;28;20078;-47
2022/07/19 02:48:43;;;;;;;9.52;6.10;;;16.10;99.90;;;;;;5079014;28;20032;-46
2022/07/19 02:51:13;;;;;;;9.43;6.50;;;14.60;99.90;;;;;;5082052;28;20528;-46
2022/07/19 02:53:39;;;;;;;9.52;5.85;;;16.70;99.90;;;;;;5082162;28;20627;-44
2022/07/19 02:56:05;;;;;;;9.20;5.40;;;15.90;99.90;;;;;;5083678;28;20073;-44
2022/07/19 02:58:32;;;;;;;9.70;5.50;;;14.40;99.90;;;;;;5083299;28;20044;-45
2022/07/19 03:00:58;;;;;;;9.50;5.28;;;14.40;99.90;;;;;;5083611;28;20574;-44
2022/07/19 03:06:08;;;;;;;8.63;5.70;;;14.40;99.90;;;;;;5083966;28;20055;-44
2022/07/19 03:08:34;;;;;;;10.07;5.55;;;16.40;99.90;;;;;;5082887;28;20052;-48
2022/07/19 03:10:59;;;;;;;10.70;6.50;;;16.50;99.90;;;;;;5083582;28;20044;-45
2022/07/19 03:13:25;;;;;;;12.32;5.95;;;14.40;99.90;;;;;;5083064;28;20075;-48
2022/07/19 03:15:51;;;;;;;7.30;5.22;;;14.50;99.90;;;;;;5083580;28;20040;-46
2022/07/19 03:18:16;;;;;;;9.60;5.35;;;15.60;99.90;;;;;;5083128;28;20032;-46
2022/07/19 03:20:42;;;;;;;11.52;5.43;;;14.40;99.90;;;;;;5083634;28;20040;-56
2022/07/19 03:23:09;;;;;;;10.65;5.15;;;14.40;99.90;;;;;;5083213;28;20085;-45
2022/07/19 03:25:35;;;;;;;9.68;6.00;;;14.60;99.90;;;;;;5082351;28;20396;-49
2022/07/19 03:28:01;;;;;;;8.70;5.55;;;15.40;99.90;;;;;;5082540;28;20051;-49
2022/07/19 03:30:31;;;;;;;9.10;5.60;;;14.60;99.90;;;;;;5081984;28;20043;-47
2022/07/19 03:32:59;;;;;;;10.52;6.22;;;14.90;99.90;;;;;;5082482;28;20842;-49
2022/07/19 03:35:25;;;;;;;8.07;5.78;;;14.40;99.90;;;;;;5082743;28;20079;-47
2022/07/19 03:37:51;;;;;;;8.38;5.82;;;14.50;99.90;;;;;;5082069;28;20133;-48
2022/07/19 03:40:16;;;;;;;9.05;5.60;;;14.50;99.90;;;;;;5081994;28;20381;-49
2022/07/19 03:42:42;;;;;;;10.57;6.30;;;14.50;99.90;;;;;;5081944;28;20164;-49
2022/07/19 03:45:08;;;;;;;9.20;6.43;;;16.00;99.90;;;;;;5082390;28;20044;-51
2022/07/19 03:47:34;;;;;;;10.02;5.85;;;14.50;99.90;;;;;;5063995;28;20118;-49
2022/07/19 03:50:00;;;;;;;10.07;6.10;;;14.80;99.90;;;;;;5082484;28;20198;-47
2022/07/19 03:52:26;;;;;;;9.02;5.68;;;15.30;99.90;;;;;;5081785;28;20144;-46
2022/07/19 03:54:52;;;;;;;8.77;5.85;;;15.90;99.90;;;;;;5082371;28;20638;-45
2022/07/19 03:57:19;;;;;;;9.77;6.28;;;14.60;99.90;;;;;;5081798;28;20659;-47
2022/07/19 03:59:45;;;;;;;9.07;5.53;;;14.60;99.90;;;;;;5082020;28;20031;-45
2022/07/19 04:02:10;;;;;;;9.10;4.85;;;14.90;99.90;;;;;;5081210;28;20054;-46
2022/07/19 04:04:36;;;;;;;10.30;5.20;;;14.90;99.90;;;;;;5081732;28;20044;-46
2022/07/19 04:07:02;;;;;;;7.63;5.20;;;14.70;99.90;;;;;;5081157;28;20040;-47
2022/07/19 04:09:27;;;;;;;7.88;5.15;;;15.10;99.90;;;;;;5081508;28;21347;-50
2022/07/19 04:11:53;;;;;;;7.90;5.53;;;14.80;99.90;;;;;;5063316;28;20105;-45
2022/07/19 04:14:19;;;;;;;9.45;4.80;;;15.60;99.90;;;;;;5081264;28;20048;-47
2022/07/19 04:16:44;;;;;;;9.48;5.18;;;17.10;99.90;;;;;;5081799;28;20114;-47
2022/07/19 04:19:10;;;;;;;6.88;4.80;;;14.80;99.90;;;;;;5081588;28;20040;-44
2022/07/19 04:21:36;;;;;;;9.63;5.28;;;15.00;99.90;;;;;;5081272;28;20458;-45
2022/07/19 04:24:02;;;;;;;8.32;4.78;;;17.20;99.90;;;;;;5082185;28;20512;-49
2022/07/19 04:26:27;;;;;;;7.60;4.97;;;15.10;99.90;;;;;;5082210;28;20122;-48
2022/07/19 04:28:53;;;;;;;10.85;6.05;;;15.10;99.90;;;;;;5081949;28;20105;-46
2022/07/19 04:31:19;;;;;;;7.78;5.72;;;15.80;99.90;;;;;;5082338;28;20830;-46
2022/07/19 04:33:44;;;;;;;9.50;5.88;;;16.00;99.90;;;;;;5082270;28;20101;-46
2022/07/19 04:36:10;;;;;;;7.78;5.00;;;15.10;99.90;;;;;;5081607;28;20051;-48
2022/07/19 04:38:36;;;;;;;10.80;6.13;;;15.20;99.90;;;;;;5081452;28;20071;-45
2022/07/19 04:41:01;;;;;;;12.90;5.97;;;15.20;99.90;;;;;;5082049;28;20035;-47
2022/07/19 04:43:29;;;;;;;8.88;6.18;;;15.80;99.90;;;;;;5081641;28;20064;-48
2022/07/19 04:45:56;;;;;;;10.10;5.45;;;15.50;99.90;;;;;;5081994;28;20036;-49
2022/07/19 04:48:22;;;;;;;10.45;5.22;;;15.50;99.90;;;;;;5081067;28;20063;-47
2022/07/19 04:50:49;;;;;;;8.27;5.63;;;17.90;99.90;;;;;;5081303;28;20524;-48
2022/07/19 04:53:15;;;;;;;8.27;5.13;;;15.90;99.90;;;;;;5081780;28;20040;-48
2022/07/19 04:56:01;;;;;;;8.57;5.20;;;15.80;99.90;;;;;;5081905;28;20040;-45
2022/07/19 04:58:28;;;;;;;8.32;4.70;;;15.90;99.90;;;;;;5063387;28;20135;-48
2022/07/19 05:00:54;;;;;;;7.72;4.50;;;16.30;99.90;;;;;;5081520;28;20620;-46
2022/07/19 05:03:20;;;;;;;7.32;4.43;;;16.50;99.90;;;;;;5080500;28;20035;-48
2022/07/19 05:05:46;;;;;;;9.48;4.18;;;16.30;99.90;;;;;;5080133;28;20044;-45
2022/07/19 05:08:12;;;;;;;6.18;3.95;;;16.70;99.90;;;;;;5080731;28;20067;-47
2022/07/19 05:10:38;;;;;;;6.82;4.20;;;17.40;99.90;;;;;;5080851;28;20044;-45
2022/07/19 05:13:04;;;;;;;6.80;4.57;;;16.80;99.90;;;;;;5079939;28;20051;-48
2022/07/19 05:15:31;;;;;;;7.68;4.70;;;17.50;99.90;;;;;;5081228;28;20050;-48
2022/07/19 05:17:57;;;;;;;7.28;4.70;;;17.20;99.90;;;;;;5080372;28;20073;-46
2022/07/19 05:20:22;;;;;;;12.38;4.50;;;17.20;99.90;;;;;;5081064;28;20227;-47
2022/07/19 05:22:50;;;;;;;10.65;4.97;;;17.20;99.90;;;;;;5080587;28;20521;-47
2022/07/19 05:25:16;;;;;;;8.40;4.88;;;19.60;99.90;;;;;;5080681;28;20043;-45
2022/07/19 05:27:43;;;;;;;12.70;5.20;;;19.60;99.90;;;;;;5080098;28;20052;-44
2022/07/19 05:30:11;;;;;;;8.70;5.28;;;17.80;99.90;;;;;;5080377;28;20044;-49
2022/07/19 05:32:37;;;;;;;9.27;5.28;;;19.10;99.90;;;;;;5079857;28;20039;-47
2022/07/19 05:35:03;;;;;;;12.18;4.88;;;20.50;99.90;;;;;;5080483;28;20581;-44
2022/07/19 05:37:31;;;;;;;13.07;4.38;;;18.30;99.90;;;;;;5080439;28;20043;-46
2022/07/19 05:39:57;;;;;;;9.30;5.07;;;18.50;99.90;;;;;;5079966;28;20075;-48
2022/07/19 05:42:22;;;;;;;9.07;5.00;;;20.60;99.90;;;;;;5080306;28;20099;-46
2022/07/19 05:44:48;;;;;;;8.98;5.00;;;19.30;99.50;;;;;;5079729;28;20057;-46
2022/07/19 05:47:15;;;;;;;8.65;5.10;;;18.90;96.30;;;;;;5080235;28;20040;-46
2022/07/19 05:49:41;;;;;;;7.53;4.75;;;19.20;94.70;;;;;;5080303;28;20075;-50
2022/07/19 05:52:07;;;;;;;9.07;4.38;;;19.50;93.70;;;;;;5081107;28;20090;-49
2022/07/19 05:54:32;;;;;;;9.40;4.63;;;21.70;93.10;;;;;;5080397;28;20134;-50
2022/07/19 05:56:58;;;;;;;8.05;4.72;;;19.60;91.80;;;;;;5081100;28;20079;-49
2022/07/19 05:59:24;;;;;;;9.43;4.97;;;19.80;88.70;;;;;;5080410;28;20123;-48
2022/07/19 06:01:49;;;;;;;8.52;5.22;;;20.60;88.70;;;;;;5080333;28;20044;-48
2022/07/19 06:04:15;;;;;;;11.75;4.75;;;20.00;85.30;;;;;;5081268;28;20043;-48
2022/07/19 06:06:41;;;;;;;9.10;4.25;;;20.30;81.90;;;;;;5080562;28;20048;-46
2022/07/19 06:09:09;;;;;;;8.07;4.60;;;20.40;79.60;;;;;;5081297;28;20039;-45
2022/07/19 06:11:36;;;;;;;11.63;4.57;;;21.60;74.50;;;;;;5080069;28;20607;-48
2022/07/19 06:14:06;;;;;;;11.88;5.00;;;20.90;72.10;;;;;;5080474;28;20052;-50
2022/07/19 06:16:32;;;;;;;8.88;4.80;;;21.80;67.70;;;;;;5080731;28;20331;-50
2022/07/19 06:18:57;;;;;;;8.00;4.55;;;21.20;66.90;;;;;;5080839;28;20607;-47
2022/07/19 06:21:23;;;;;;;11.18;4.35;;;21.30;57.20;;;;;;5080373;28;20036;-50
2022/07/19 06:23:49;;;;;;;7.85;4.40;;;21.50;59.20;;;;;;5080211;28;20127;-48
2022/07/19 06:26:15;;;;;;;9.27;4.40;;;23.70;53.90;;;;;;5083794;28;20044;-46
2022/07/19 06:28:43;;;;;;;8.68;4.70;;;21.90;44.40;;;;;;5083616;28;20047;-50
2022/07/19 06:31:13;;;;;;;9.45;4.47;;;22.00;24.90;;;;;;5083591;28;20064;-46
2022/07/19 06:33:40;;;;;;;12.70;4.22;;;22.60;16.90;;;;;;5083979;28;20153;-46
2022/07/19 06:36:06;;;;;;;6.18;3.47;;;25.00;3.90;;;;;;5083416;28;20127;-49
2022/07/19 06:38:34;;;;;;;7.63;4.22;;;23.50;1.00;;;;;;5084472;28;20139;-45
2022/07/19 06:41:00;;;;;;;8.57;4.15;;;23.40;1.00;;;;;;5083424;28;20044;-48
2022/07/19 06:43:25;;;;;;;9.13;3.58;;;23.40;1.00;;;;;;5082869;28;20643;-46
2022/07/19 06:45:51;;;;;;;6.65;3.65;;;23.60;1.00;;;;;;5083575;28;20075;-47
2022/07/19 06:48:18;;;;;;;8.68;4.18;;;23.50;1.00;;;;;;5083492;28;20051;-48
2022/07/19 06:50:44;;;;;;;9.27;3.92;;;23.70;1.00;;;;;;5083078;28;20040;-49
2022/07/19 06:53:10;;;;;;;11.82;4.10;;;23.70;1.00;;;;;;5083883;28;20044;-47
2022/07/19 06:55:37;;;;;;;6.72;3.53;;;25.10;1.00;;;;;;5083012;28;20033;-48
2022/07/19 06:58:03;;;;;;;8.85;3.47;;;23.90;1.00;;;;;;5083262;28;20069;-48
2022/07/19 07:00:28;;;;;;;10.95;3.80;;;24.20;1.00;;;;;;5083316;28;20044;-47
2022/07/19 07:02:56;;;;;;;7.97;4.13;;;24.80;1.00;;;;;;5084301;28;20040;-46
2022/07/19 07:05:22;;;;;;;9.57;3.75;;;27.30;99.90;;;;;;5084123;28;20405;-48
2022/07/19 07:07:48;;;;;;;7.53;3.60;;;26.80;99.90;;;;;;5083530;28;20050;-48
2022/07/19 07:10:14;;;;;;;9.95;3.50;;;27.50;99.90;;;;;;5083738;28;20474;-50
2022/07/19 07:12:40;;;;;;;5.85;3.65;;;28.50;99.90;;;;;;5083419;28;20112;-49
2022/07/19 07:15:07;;;;;;;6.70;3.47;;;29.50;68.10;;;;;;5083962;28;20493;-51
2022/07/19 07:17:35;;;;;;;8.75;3.30;;;30.00;99.90;;;;;;5083519;28;20040;-46
2022/07/19 07:20:01;;;;;;;6.78;3.28;;;30.60;1.00;;;;;;5083765;28;20064;-50
2022/07/19 07:22:27;;;;;;;7.28;2.83;;;30.90;1.00;;;;;;5083725;28;20150;-49
2022/07/19 07:24:53;;;;;;;6.28;3.20;;;31.50;99.90;;;;;;5083069;28;20039;-51
2022/07/19 07:27:18;;;;;;;8.32;2.97;;;32.10;1.00;;;;;;5083207;28;20055;-52
2022/07/19 07:29:46;;;;;;;7.35;3.53;;;32.40;1.00;;;;;;5083511;28;20779;-49
2022/07/19 07:32:12;;;;;;;7.90;3.22;;;32.90;99.90;;;;;;5083066;28;20055;-47
2022/07/19 07:34:37;;;;;;;4.85;2.85;;;33.30;99.90;;;;;;5082449;28;20036;-51
2022/07/19 07:37:03;;;;;;;8.18;3.10;;;33.40;1.00;;;;;;5081676;28;20048;-52
2022/07/19 07:39:30;;;;;;;6.15;2.85;;;33.60;1.00;;;;;;5082551;28;20043;-51
2022/07/19 07:41:56;;;;;;;9.35;2.72;;;33.70;1.00;;;;;;5081906;28;20075;-52
2022/07/19 07:44:22;;;;;;;5.80;2.78;;;34.00;99.90;;;;;;5082142;28;20117;-49
2022/07/19 07:46:47;;;;;;;8.82;2.58;;;34.00;99.90;;;;;;5082629;28;20036;-51
2022/07/19 07:49:13;;;;;;;7.65;2.65;;;33.90;99.90;;;;;;5082444;28;20331;-50
2022/07/19 07:51:39;;;;;;;7.82;2.50;;;34.30;99.90;;;;;;5082037;28;20036;-52
2022/07/19 07:54:04;;;;;;;5.13;2.55;;;34.10;99.90;;;;;;5081975;28;20289;-50
2022/07/19 07:56:30;;;;;;;5.55;2.85;;;33.90;99.90;;;;;;5082420;28;20048;-52
2022/07/19 07:58:56;;;;;;;4.85;2.55;;;34.50;99.90;;;;;;5082577;28;20515;-51
2022/07/19 08:01:25;;;;;;;6.28;2.50;;;34.50;99.90;;;;;;5082571;28;20044;-53
2022/07/19 08:03:53;;;;;;;6.75;2.55;;;34.90;99.90;;;;;;5082560;28;20051;-52
2022/07/19 08:06:19;;;;;;;6.43;2.72;;;35.00;99.90;;;;;;5063081;28;20064;-51
2022/07/19 08:08:48;;;;;;;9.65;2.75;;;34.90;99.90;;;;;;5081624;28;20134;-53
2022/07/19 08:11:14;;;;;;;6.97;2.17;;;35.30;99.90;;;;;;5063286;28;20128;-52
2022/07/19 08:13:39;;;;;;;5.75;2.40;;;35.10;99.90;;;;;;5082077;28;20052;-52
2022/07/19 08:16:06;;;;;;;9.15;2.20;;;34.80;99.90;;;;;;5098238;27;20036;-52
2022/07/19 08:18:33;;;;;;;8.23;2.20;;;34.60;99.90;;;;;;5082668;28;20083;-48
2022/07/19 08:20:59;;;;;;;4.95;2.15;;;34.60;99.90;;;;;;5081421;28;20115;-53
2022/07/19 08:23:25;;;;;;;5.35;2.20;;;34.20;99.90;;;;;;5082226;28;20119;-53
2022/07/19 08:25:52;;;;;;;6.35;2.47;;;34.40;99.90;;;;;;5082257;28;20745;-54
2022/07/19 08:28:18;;;;;;;6.97;2.72;;;34.10;99.90;;;;;;5081571;28;20131;-51
2022/07/19 08:30:44;;;;;;;6.68;2.40;;;34.10;99.90;;;;;;5064109;28;20048;-49
2022/07/19 08:33:09;;;;;;;5.57;2.55;;;33.70;99.90;;;;;;5081997;28;20318;-53
2022/07/19 08:35:36;;;;;;;7.35;2.45;;;32.50;99.90;;;;;;5081814;28;20470;-52
2022/07/19 08:38:02;;;;;;;5.50;2.55;;;33.80;99.90;;;;;;5081418;28;20126;-52
2022/07/19 08:40:29;;;;;;;6.18;2.40;;;33.80;99.90;;;;;;5064159;28;20594;-52
2022/07/19 08:42:58;;;;;;;10.50;2.28;;;34.20;99.90;;;;;;5081164;28;20098;-53
2022/07/19 08:45:25;;;;;;;6.40;2.17;;;33.40;99.90;;;;;;5081756;28;20042;-54
2022/07/19 08:47:51;;;;;;;5.40;2.00;;;34.70;99.90;;;;;;5079448;28;21075;-53
2022/07/19 08:50:18;;;;;;;6.63;2.40;;;34.70;99.90;;;;;;5080799;28;20302;-51
2022/07/19 08:52:44;;;;;;;6.05;1.90;;;34.80;99.90;;;;;;5080646;28;20496;-53
2022/07/19 08:55:10;;;;;;;6.93;2.10;;;34.70;99.90;;;;;;5081479;28;20117;-48
2022/07/19 09:00:24;;;;;;;10.98;2.58;;;33.50;99.90;;;;;;5080933;28;20105;-52
2022/07/19 09:02:59;;;;;;;5.60;1.90;;;33.10;99.90;;;;;;5080651;28;20151;-50
2022/07/19 09:05:26;;;;;;;5.80;1.95;;;32.80;99.90;;;;;;5080848;28;20047;-52
2022/07/19 09:08:05;;;;;;;4.93;2.08;;;32.70;99.90;;;;;;5080941;28;20104;-51
2022/07/19 09:10:32;;;;;;;4.65;1.90;;;32.20;99.90;;;;;;5079855;28;20044;-50
2022/07/19 09:13:10;;;;;;;4.13;1.90;;;32.40;99.90;;;;;;5079368;28;20117;-51
2022/07/19 09:15:59;;;;;;;6.88;2.22;;;32.70;99.90;;;;;;5081222;28;20399;-51
2022/07/19 09:18:32;;;;;;;6.35;1.90;;;33.10;99.90;;;;;;5079292;28;20056;-50
2022/07/19 09:21:00;;;;;;;5.30;1.90;;;33.40;99.90;;;;;;5080472;28;20105;-50
2022/07/19 09:23:27;;;;;;;4.43;2.03;;;32.80;99.90;;;;;;5080630;28;20752;-52
2022/07/19 09:26:01;;;;;;;7.00;2.10;;;33.60;99.90;;;;;;5080559;28;20075;-48
2022/07/19 09:28:31;;;;;;;8.27;1.80;;;33.50;99.90;;;;;;5080523;28;20104;-53
2022/07/19 09:30:58;;;;;;;4.00;1.60;;;33.30;99.90;;;;;;5081026;28;20086;-48
2022/07/19 09:33:27;;;;;;;10.27;1.80;;;33.30;99.90;;;;;;5081525;28;20032;-47
2022/07/19 09:36:00;;;;;;;5.25;1.83;;;32.90;99.90;;;;;;5080899;28;20040;-48
2022/07/19 09:38:31;;;;;;;3.72;1.73;;;32.80;99.90;;;;;;5080955;28;20511;-52
2022/07/19 09:41:14;;;;;;;8.05;1.92;;;32.70;99.90;;;;;;5081178;28;20378;-52
2022/07/19 09:43:48;;;;;;;4.30;1.73;;;32.60;99.90;;;;;;5080059;28;20048;-49
2022/07/19 09:46:35;;;;;;;5.82;1.73;;;32.60;99.90;;;;;;5080607;28;20051;-50
2022/07/19 09:49:11;;;;;;;5.32;1.70;;;33.10;99.90;;;;;;5080964;28;20476;-50
2022/07/19 09:51:39;;;;;;;8.00;2.53;;;32.70;99.90;;;;;;5080941;28;20028;-53
2022/07/19 09:54:06;;;;;;;7.47;1.60;;;32.80;99.90;;;;;;5081009;28;20044;-50
2022/07/19 09:56:33;;;;;;;8.40;1.77;;;33.00;99.90;;;;;;5080794;28;20040;-47
2022/07/19 09:59:01;;;;;;;3.78;1.60;;;33.10;99.90;;;;;;5079968;28;20055;-49
2022/07/19 10:01:29;;;;;;;5.18;1.77;;;33.20;99.90;;;;;;5080831;28;20036;-51
2022/07/19 10:03:58;;;;;;;7.28;1.70;;;33.20;99.90;;;;;;5080928;28;20043;-49
2022/07/19 10:06:26;;;;;;;4.80;1.75;;;33.20;99.90;;;;;;5079887;28;20765;-53
2022/07/19 10:08:54;;;;;;;5.03;1.50;;;33.30;99.90;;;;;;5080250;28;20139;-47
2022/07/19 10:11:20;;;;;;;3.70;1.30;;;33.40;99.90;;;;;;5079354;28;20649;-51
2022/07/19 10:13:48;;;;;;;7.93;1.90;;;33.40;99.90;;;;;;5080257;28;20048;-47
2022/07/19 10:16:21;;;;;;;4.57;1.38;;;33.60;99.90;;;;;;5062022;28;20052;-49
2022/07/19 10:19:07;;;;;;;6.88;1.65;;;33.70;99.90;;;;;;5079905;28;20052;-49
2022/07/19 10:21:35;;;;;;;5.57;1.80;;;33.70;99.90;;;;;;5079922;28;20504;-52
2022/07/19 10:24:00;;;;;;;5.85;1.55;;;33.70;99.90;;;;;;5079515;28;20797;-49
2022/07/19 10:26:37;;;;;;;6.47;1.40;;;33.80;99.90;;;;;;5079364;28;20131;-50
2022/07/19 10:29:15;;;;;;;3.58;1.58;;;33.70;99.90;;;;;;5079708;28;20036;-52
2022/07/19 10:31:43;;;;;;;5.93;1.48;;;34.00;99.90;;;;;;5079848;28;20093;-48
2022/07/19 10:34:22;;;;;;;7.55;1.80;;;34.00;99.90;;;;;;5079702;28;20207;-52
2022/07/19 10:36:49;;;;;;;5.75;1.65;;;34.10;99.90;;;;;;5079379;28;20044;-51
2022/07/19 10:39:22;;;;;;;7.07;1.33;;;34.40;99.90;;;;;;5079636;28;20446;-50
2022/07/19 10:42:09;;;;;;;6.00;1.70;;;34.50;98.30;;;;;;5079390;28;20071;-48
2022/07/19 10:44:54;;;;;;;4.18;1.48;;;34.40;66.90;;;;;;5079577;28;20305;-46
2022/07/19 10:47:43;;;;;;;7.97;1.55;;;34.40;52.90;;;;;;5080080;28;20040;-48
2022/07/19 10:50:19;;;;;;;8.20;1.70;;;34.40;41.00;;;;;;4997325;28;20511;-48
2022/07/19 10:52:45;;;;;;;7.47;1.52;;;34.50;86.80;;;;;;4997268;28;20054;-50
2022/07/19 10:55:37;;;;;;;4.47;1.50;;;34.50;91.10;;;;;;4997824;28;20909;-48
2022/07/19 10:58:06;;;;;;;3.75;1.30;;;34.50;87.20;;;;;;4977704;28;20093;-49
2022/07/19 11:00:49;;;;;;;4.63;1.40;;;34.50;78.60;;;;;;4978102;28;20058;-50
2022/07/19 11:03:21;;;;;;;6.65;2.00;;;34.70;27.60;;;;;;4978543;28;20050;-47
2022/07/19 11:05:56;;;;;;;4.13;1.50;;;34.50;66.70;;;;;;4977652;28;20138;-49
2022/07/19 11:08:37;;;;;;;4.70;1.73;;;34.30;62.00;;;;;;4978337;28;20062;-48
2022/07/19 11:11:17;;;;;;;4.97;1.42;;;34.40;63.10;;;;;;4978717;28;20145;-47
2022/07/19 11:13:45;;;;;;;6.32;1.40;;;34.70;23.40;;;;;;4981432;28;20055;-47
2022/07/19 11:16:11;;;;;;;3.78;1.27;;;34.60;53.40;;;;;;4981633;28;20065;-48
2022/07/19 11:18:37;;;;;;;3.95;1.30;;;34.60;49.40;;;;;;4980883;28;20046;-48
2022/07/19 11:21:05;;;;;;;4.70;1.40;;;35.00;50.90;;;;;;4981099;28;20583;-50
2022/07/19 11:23:35;;;;;;;4.07;1.50;;;34.90;45.70;;;;;;4981029;28;20046;-48
2022/07/19 11:26:20;;;;;;;2.97;1.40;;;34.90;48.60;;;;;;4980524;28;20571;-49
2022/07/19 11:28:47;;;;;;;5.15;1.40;;;34.70;49.60;;;;;;5019352;28;20067;-48
2022/07/19 11:31:19;;;;;;;5.80;1.60;;;34.80;36.90;;;;;;5019448;28;20821;-48
2022/07/19 11:33:47;;;;;;;4.78;1.20;;;35.00;3.70;;;;;;5021547;28;20044;-48
2022/07/19 11:36:17;;;;;;;4.00;1.52;;;35.10;32.40;;;;;;5082925;28;20044;-47
2022/07/19 11:38:45;;;;;;;4.93;1.17;;;35.20;31.30;;;;;;5082902;28;20660;-48
2022/07/19 11:41:39;;;;;;;4.65;1.00;;;35.30;27.60;;;;;;5082201;28;20054;-49
2022/07/19 11:44:09;;;;;;;3.53;1.00;;;35.30;28.30;;;;;;5082450;28;20416;-47
2022/07/19 11:46:37;;;;;;;5.82;1.45;;;35.20;1.00;;;;;;5080123;28;20044;-49
2022/07/19 11:49:06;;;;;;;6.88;1.27;;;35.40;20.00;;;;;;5082435;28;20127;-46
2022/07/19 11:51:33;;;;;;;2.75;1.17;;;35.40;22.00;;;;;;5082456;28;20055;-47
2022/07/19 11:54:00;;;;;;;5.30;1.48;;;35.60;15.00;;;;;;5081870;28;20530;-47
2022/07/19 11:56:31;;;;;;;3.85;1.17;;;35.40;12.10;;;;;;5082491;28;20497;-50
2022/07/19 11:59:00;;;;;;;7.20;1.30;;;35.30;14.40;;;;;;5082754;28;20390;-50
2022/07/19 12:01:29;;;;;;;5.20;1.40;;;35.20;12.70;;;;;;5064211;28;20117;-50
2022/07/19 12:04:01;;;;;;;2.67;1.20;;;35.50;12.40;;;;;;5082241;28;20040;-48
2022/07/19 12:06:45;;;;;;;4.57;1.30;;;35.70;1.00;;;;;;5081756;28;20048;-52
2022/07/19 12:09:19;;;;;;;6.72;1.35;;;35.80;15.50;;;;;;5082913;28;20539;-47
2022/07/19 12:11:54;;;;;;;2.22;0.93;;;36.00;1.00;;;;;;5082545;28;20048;-47
2022/07/19 12:14:30;;;;;;;4.40;1.20;;;35.70;6.50;;;;;;5082670;28;20051;-48
2022/07/19 12:17:20;;;;;;;1.95;1.08;;;35.50;1.00;;;;;;5082374;28;20499;-50
2022/07/19 12:20:06;;;;;;;6.45;1.40;;;35.50;7.60;;;;;;5082078;28;20236;-47
2022/07/19 12:22:35;;;;;;;4.38;1.42;;;35.50;6.60;;;;;;5081553;28;20493;-48
2022/07/19 12:25:03;;;;;;;4.93;1.40;;;35.60;1.00;;;;;;5082587;28;20513;-50
2022/07/19 12:27:29;;;;;;;3.40;1.30;;;35.60;1.00;;;;;;5082228;28;20052;-46
2022/07/19 12:29:56;;;;;;;6.88;1.50;;;35.70;1.00;;;;;;5081947;28;20044;-48
2022/07/19 12:32:31;;;;;;;4.03;1.40;;;35.70;1.00;;;;;;5082390;28;20139;-47
2022/07/19 12:35:11;;;;;;;7.75;1.50;;;35.90;2.70;;;;;;5081677;28;20497;-50
2022/07/19 12:37:50;;;;;;;5.20;1.60;;;35.60;1.00;;;;;;5081635;28;20109;-48
2022/07/19 12:40:25;;;;;;;3.92;1.33;;;35.70;1.80;;;;;;5081462;28;20422;-47
2022/07/19 12:43:02;;;;;;;6.72;1.75;;;35.50;1.00;;;;;;5081068;28;20292;-50
2022/07/19 12:45:32;;;;;;;5.90;1.48;;;35.00;1.00;;;;;;5081444;28;20067;-46
2022/07/19 12:48:01;;;;;;;4.85;1.40;;;35.40;1.00;;;;;;5081241;28;20044;-48
2022/07/19 12:50:32;;;;;;;3.88;1.45;;;35.50;1.00;;;;;;5080896;28;20040;-52
2022/07/19 12:53:01;;;;;;;5.88;1.40;;;35.50;1.00;;;;;;5062890;28;20047;-50
2022/07/19 12:55:29;;;;;;;4.70;1.60;;;35.50;1.00;;;;;;5081377;28;20081;-49
2022/07/19 12:57:56;;;;;;;6.55;1.33;;;35.70;1.00;;;;;;5080837;28;20032;-49